createdAt,value
2017-06-19T00:00:03.084Z,85.83
2017-06-19T00:00:07.392Z,85.88
2017-06-19T00:00:11.700Z,86.02
2017-06-19T00:00:16.002Z,85.5
2017-06-19T00:00:20.198Z,85.79
2017-06-19T00:00:24.623Z,85.83
2017-06-19T00:00:29.042Z,85.6
2017-06-19T00:00:33.465Z,85.69
2017-06-19T00:00:37.886Z,85.88
2017-06-19T00:00:42.077Z,85.79
2017-06-19T00:00:46.506Z,85.88
2017-06-19T00:00:50.815Z,85.79
2017-06-19T00:00:55.240Z,85.69
2017-06-19T00:00:59.676Z,85.6
2017-06-19T00:01:03.983Z,85.69
2017-06-19T00:01:08.306Z,86.27
2017-06-19T00:01:12.777Z,85.98
2017-06-19T00:01:17.079Z,86.08
2017-06-19T00:01:21.381Z,86.17
2017-06-19T00:01:25.685Z,86.41
2017-06-19T00:01:30.118Z,86.36
2017-06-19T00:01:34.311Z,86.36
2017-06-19T00:01:38.614Z,86.21
2017-06-19T00:01:43.041Z,86.55
2017-06-19T00:01:47.460Z,86.31
2017-06-19T00:01:51.884Z,86.46
2017-06-19T00:01:56.315Z,86.65
2017-06-19T00:02:00.757Z,86.74
2017-06-19T00:02:04.947Z,86.74
2017-06-19T00:02:09.377Z,86.55
2017-06-19T00:02:13.797Z,87.03
2017-06-19T00:02:18.103Z,86.74
2017-06-19T00:02:22.419Z,86.94
2017-06-19T00:02:26.720Z,87.08
2017-06-19T00:02:30.909Z,87.32
2017-06-19T00:02:35.333Z,87.17
2017-06-19T00:02:39.752Z,87.13
2017-06-19T00:02:43.944Z,87.27
2017-06-19T00:02:48.398Z,87.03
2017-06-19T00:02:52.818Z,87.17
2017-06-19T00:02:57.240Z,87.03
2017-06-19T00:03:01.663Z,86.88
2017-06-19T00:03:05.970Z,86.84
2017-06-19T00:03:10.400Z,86.79
2017-06-19T00:03:14.717Z,86.98
2017-06-19T00:03:19.023Z,86.79
2017-06-19T00:03:23.207Z,86.74
2017-06-19T00:03:27.514Z,87.13
2017-06-19T00:03:31.474Z,87.08
2017-06-19T00:03:35.940Z,86.88
2017-06-19T00:03:40.370Z,87.37
2017-06-19T00:03:44.789Z,87.27
2017-06-19T00:03:49.094Z,86.94
2017-06-19T00:03:53.513Z,86.88
2017-06-19T00:03:57.942Z,86.98
2017-06-19T00:04:02.709Z,86.94
2017-06-19T00:04:07.010Z,86.98
2017-06-19T00:04:11.200Z,87.7
2017-06-19T00:04:15.619Z,87.27
2017-06-19T00:04:19.920Z,86.88
2017-06-19T00:04:24.228Z,87.08
2017-06-19T00:04:28.538Z,87.61
2017-06-19T00:04:32.959Z,87.55
2017-06-19T00:04:37.389Z,87.32
2017-06-19T00:04:41.820Z,87.46
2017-06-19T00:04:46.250Z,87.46
2017-06-19T00:04:50.479Z,87.46
2017-06-19T00:04:54.785Z,87.37
2017-06-19T00:04:59.209Z,87.46
2017-06-19T00:05:03.788Z,87.55
2017-06-19T00:05:08.213Z,87.32
2017-06-19T00:05:12.638Z,87.65
2017-06-19T00:05:16.947Z,87.74
2017-06-19T00:05:20.901Z,87.8
2017-06-19T00:05:25.204Z,87.94
2017-06-19T00:05:29.630Z,87.84
2017-06-19T00:05:34.056Z,87.94
2017-06-19T00:05:38.522Z,87.8
2017-06-19T00:05:42.948Z,88.03
2017-06-19T00:05:47.376Z,88.03
2017-06-19T00:05:51.683Z,88.03
2017-06-19T00:05:56.111Z,87.94
2017-06-19T00:06:00.421Z,87.84
2017-06-19T00:06:04.858Z,87.94
2017-06-19T00:06:09.280Z,88.13
2017-06-19T00:06:13.586Z,88.03
2017-06-19T00:06:17.890Z,88.13
2017-06-19T00:06:22.079Z,87.9
2017-06-19T00:06:26.510Z,88.13
2017-06-19T00:06:30.816Z,88.03
2017-06-19T00:06:35.120Z,88.03
2017-06-19T00:06:39.540Z,88.03
2017-06-19T00:06:43.849Z,88.03
2017-06-19T00:06:48.276Z,87.84
2017-06-19T00:06:52.501Z,88.13
2017-06-19T00:06:56.810Z,88.13
2017-06-19T00:07:01.232Z,88.03
2017-06-19T00:07:05.546Z,88.13
2017-06-19T00:07:09.849Z,88.23
2017-06-19T00:07:14.275Z,88.03
2017-06-19T00:07:18.587Z,88.13
2017-06-19T00:07:22.774Z,87.65
2017-06-19T00:07:27.079Z,87.74
2017-06-19T00:07:31.386Z,87.46
2017-06-19T00:07:35.811Z,87.46
2017-06-19T00:07:40.247Z,87.46
2017-06-19T00:07:44.552Z,87.65
2017-06-19T00:07:48.973Z,87.46
2017-06-19T00:07:53.398Z,86.79
2017-06-19T00:07:57.702Z,86.98
2017-06-19T00:08:02.230Z,86.88
2017-06-19T00:08:06.541Z,87.37
2017-06-19T00:08:10.725Z,86.88
2017-06-19T00:08:14.909Z,86.98
2017-06-19T00:08:19.213Z,87.17
2017-06-19T00:08:23.407Z,87.27
2017-06-19T00:08:27.839Z,86.6
2017-06-19T00:08:32.146Z,86.79
2017-06-19T00:08:36.564Z,86.41
2017-06-19T00:08:40.986Z,86.21
2017-06-19T00:08:45.294Z,85.83
2017-06-19T00:08:49.725Z,86.12
2017-06-19T00:08:54.175Z,86.31
2017-06-19T00:08:58.496Z,86.21
2017-06-19T00:09:02.918Z,85.83
2017-06-19T00:09:07.230Z,85.93
2017-06-19T00:09:11.538Z,86.31
2017-06-19T00:09:15.607Z,85.74
2017-06-19T00:09:19.801Z,86.21
2017-06-19T00:09:24.219Z,85.64
2017-06-19T00:09:28.638Z,85.83
2017-06-19T00:09:32.706Z,85.83
2017-06-19T00:09:37.008Z,86.02
2017-06-19T00:09:41.437Z,86.02
2017-06-19T00:09:45.864Z,85.54
2017-06-19T00:09:50.168Z,85.35
2017-06-19T00:09:54.475Z,85.54
2017-06-19T00:09:58.921Z,85.35
2017-06-19T00:10:03.348Z,85.45
2017-06-19T00:10:07.542Z,85.54
2017-06-19T00:10:11.495Z,85.35
2017-06-19T00:10:15.802Z,85.74
2017-06-19T00:10:20.112Z,85.64
2017-06-19T00:10:24.533Z,85.45
2017-06-19T00:10:28.844Z,85.35
2017-06-19T00:10:33.036Z,85.35
2017-06-19T00:10:37.342Z,85.54
2017-06-19T00:10:41.762Z,85.54
2017-06-19T00:10:46.068Z,85.54
2017-06-19T00:10:50.374Z,85.54
2017-06-19T00:10:54.803Z,85.35
2017-06-19T00:10:59.226Z,85.74
2017-06-19T00:11:03.644Z,85.93
2017-06-19T00:11:07.951Z,85.64
2017-06-19T00:11:12.137Z,85.45
2017-06-19T00:11:16.439Z,86.12
2017-06-19T00:11:20.869Z,85.83
2017-06-19T00:11:25.174Z,85.83
2017-06-19T00:11:29.598Z,85.74
2017-06-19T00:11:33.903Z,86.02
2017-06-19T00:11:38.331Z,85.93
2017-06-19T00:11:42.761Z,86.41
2017-06-19T00:11:47.220Z,86.6
2017-06-19T00:11:51.639Z,86.69
2017-06-19T00:11:55.947Z,85.83
2017-06-19T00:12:00.260Z,86.12
2017-06-19T00:12:04.730Z,86.12
2017-06-19T00:12:09.044Z,86.12
2017-06-19T00:12:13.479Z,86.12
2017-06-19T00:12:17.784Z,86.12
2017-06-19T00:12:22.090Z,86.31
2017-06-19T00:12:26.395Z,86.31
2017-06-19T00:12:30.854Z,86.69
2017-06-19T00:12:35.285Z,86.69
2017-06-19T00:12:39.703Z,86.41
2017-06-19T00:12:44.001Z,86.41
2017-06-19T00:12:48.305Z,86.5
2017-06-19T00:12:52.609Z,86.31
2017-06-19T00:12:56.923Z,86.12
2017-06-19T00:13:01.381Z,86.12
2017-06-19T00:13:06.102Z,86.5
2017-06-19T00:13:10.406Z,86.69
2017-06-19T00:13:14.591Z,86.88
2017-06-19T00:13:19.012Z,86.79
2017-06-19T00:13:23.462Z,86.6
2017-06-19T00:13:27.774Z,86.69
2017-06-19T00:13:32.197Z,86.79
2017-06-19T00:13:36.497Z,86.79
2017-06-19T00:13:40.803Z,86.88
2017-06-19T00:13:45.226Z,87.37
2017-06-19T00:13:49.650Z,87.17
2017-06-19T00:13:54.075Z,87.17
2017-06-19T00:13:58.494Z,87.08
2017-06-19T00:14:02.677Z,86.98
2017-06-19T00:14:07.099Z,86.88
2017-06-19T00:14:11.527Z,87.08
2017-06-19T00:14:15.961Z,87.17
2017-06-19T00:14:20.264Z,87.17
2017-06-19T00:14:24.681Z,86.69
2017-06-19T00:14:28.982Z,87.27
2017-06-19T00:14:33.291Z,87.84
2017-06-19T00:14:37.715Z,87.65
2017-06-19T00:14:42.147Z,87.65
2017-06-19T00:14:46.446Z,87.46
2017-06-19T00:14:50.631Z,87.46
2017-06-19T00:14:55.056Z,87.46
2017-06-19T00:14:59.241Z,87.46
2017-06-19T00:15:03.555Z,87.84
2017-06-19T00:15:07.864Z,87.55
2017-06-19T00:15:12.169Z,87.65
2017-06-19T00:15:16.354Z,87.65
2017-06-19T00:15:20.539Z,87.74
2017-06-19T00:15:24.966Z,87.65
2017-06-19T00:15:29.285Z,87.84
2017-06-19T00:15:33.472Z,87.46
2017-06-19T00:15:37.896Z,87.94
2017-06-19T00:15:42.206Z,87.94
2017-06-19T00:15:46.639Z,87.84
2017-06-19T00:15:51.066Z,87.94
2017-06-19T00:15:55.269Z,87.65
2017-06-19T00:15:59.686Z,87.46
2017-06-19T00:16:03.882Z,87.46
2017-06-19T00:16:08.189Z,87.55
2017-06-19T00:16:12.494Z,86.98
2017-06-19T00:16:16.683Z,86.98
2017-06-19T00:16:20.985Z,86.98
2017-06-19T00:16:25.176Z,86.88
2017-06-19T00:16:29.516Z,86.5
2017-06-19T00:16:33.951Z,86.79
2017-06-19T00:16:38.377Z,86.41
2017-06-19T00:16:42.798Z,86.31
2017-06-19T00:16:47.235Z,85.93
2017-06-19T00:16:51.307Z,86.21
2017-06-19T00:16:55.735Z,86.02
2017-06-19T00:17:00.169Z,85.83
2017-06-19T00:17:04.456Z,85.64
2017-06-19T00:17:08.877Z,85.64
2017-06-19T00:17:13.073Z,85.64
2017-06-19T00:17:17.497Z,85.16
2017-06-19T00:17:21.918Z,85.45
2017-06-19T00:17:26.234Z,85.54
2017-06-19T00:17:30.654Z,85.35
2017-06-19T00:17:34.849Z,85.06
2017-06-19T00:17:39.312Z,85.35
2017-06-19T00:17:43.737Z,85.54
2017-06-19T00:17:48.043Z,84.68
2017-06-19T00:17:52.235Z,84.97
2017-06-19T00:17:56.541Z,84.78
2017-06-19T00:18:00.871Z,84.39
2017-06-19T00:18:05.324Z,84.58
2017-06-19T00:18:09.633Z,84.49
2017-06-19T00:18:13.824Z,84.39
2017-06-19T00:18:18.132Z,84.49
2017-06-19T00:18:22.445Z,84.58
2017-06-19T00:18:26.766Z,84.58
2017-06-19T00:18:31.188Z,84.49
2017-06-19T00:18:35.620Z,84.58
2017-06-19T00:18:40.052Z,83.92
2017-06-19T00:18:44.357Z,84.01
2017-06-19T00:18:48.810Z,84.2
2017-06-19T00:18:53.239Z,84.01
2017-06-19T00:18:57.662Z,84.78
2017-06-19T00:19:01.975Z,84.58
2017-06-19T00:19:06.162Z,84.49
2017-06-19T00:19:10.468Z,84.49
2017-06-19T00:19:14.661Z,84.39
2017-06-19T00:19:18.848Z,84.49
2017-06-19T00:19:23.032Z,84.58
2017-06-19T00:19:27.460Z,84.68
2017-06-19T00:19:31.766Z,84.97
2017-06-19T00:19:36.196Z,84.88
2017-06-19T00:19:40.622Z,85.25
2017-06-19T00:19:44.810Z,85.16
2017-06-19T00:19:48.996Z,85.54
2017-06-19T00:19:53.423Z,85.64
2017-06-19T00:19:57.847Z,85.54
2017-06-19T00:20:02.460Z,85.25
2017-06-19T00:20:06.649Z,85.64
2017-06-19T00:20:10.843Z,85.25
2017-06-19T00:20:15.152Z,85.35
2017-06-19T00:20:19.460Z,85.35
2017-06-19T00:20:23.887Z,85.45
2017-06-19T00:20:28.319Z,85.45
2017-06-19T00:20:32.743Z,85.16
2017-06-19T00:20:37.047Z,85.83
2017-06-19T00:20:41.351Z,85.64
2017-06-19T00:20:45.540Z,85.83
2017-06-19T00:20:49.868Z,85.45
2017-06-19T00:20:54.292Z,85.93
2017-06-19T00:20:58.594Z,86.41
2017-06-19T00:21:03.017Z,85.83
2017-06-19T00:21:07.442Z,86.21
2017-06-19T00:21:11.748Z,86.21
2017-06-19T00:21:16.060Z,86.31
2017-06-19T00:21:20.488Z,85.83
2017-06-19T00:21:24.792Z,86.21
2017-06-19T00:21:29.095Z,86.12
2017-06-19T00:21:33.403Z,86.31
2017-06-19T00:21:37.717Z,86.69
2017-06-19T00:21:42.159Z,86.5
2017-06-19T00:21:46.588Z,86.5
2017-06-19T00:21:51.013Z,86.5
2017-06-19T00:21:55.318Z,86.41
2017-06-19T00:21:59.770Z,86.31
2017-06-19T00:22:04.088Z,86.41
2017-06-19T00:22:08.281Z,86.98
2017-06-19T00:22:12.469Z,86.6
2017-06-19T00:22:16.775Z,86.88
2017-06-19T00:22:21.077Z,87.08
2017-06-19T00:22:25.500Z,87.17
2017-06-19T00:22:29.704Z,86.88
2017-06-19T00:22:34.012Z,87.27
2017-06-19T00:22:38.444Z,86.98
2017-06-19T00:22:42.866Z,86.98
2017-06-19T00:22:47.182Z,86.88
2017-06-19T00:22:51.621Z,86.79
2017-06-19T00:22:55.925Z,86.98
2017-06-19T00:23:00.233Z,87.17
2017-06-19T00:23:04.659Z,86.79
2017-06-19T00:23:09.083Z,87.46
2017-06-19T00:23:13.509Z,86.98
2017-06-19T00:23:17.830Z,87.46
2017-06-19T00:23:22.133Z,86.88
2017-06-19T00:23:26.316Z,86.69
2017-06-19T00:23:30.747Z,86.98
2017-06-19T00:23:35.167Z,87.37
2017-06-19T00:23:39.480Z,86.88
2017-06-19T00:23:43.800Z,87.17
2017-06-19T00:23:47.981Z,87.08
2017-06-19T00:23:52.171Z,87.08
2017-06-19T00:23:56.595Z,87.46
2017-06-19T00:24:01.030Z,87.17
2017-06-19T00:24:05.373Z,87.17
2017-06-19T00:24:09.794Z,87.65
2017-06-19T00:24:13.978Z,87.65
2017-06-19T00:24:18.397Z,87.84
2017-06-19T00:24:22.818Z,87.46
2017-06-19T00:24:27.252Z,86.98
2017-06-19T00:24:31.442Z,86.98
2017-06-19T00:24:35.747Z,86.88
2017-06-19T00:24:40.052Z,86.69
2017-06-19T00:24:44.479Z,86.79
2017-06-19T00:24:48.910Z,87.27
2017-06-19T00:24:53.094Z,86.69
2017-06-19T00:24:57.400Z,86.31
2017-06-19T00:25:02.053Z,86.12
2017-06-19T00:25:06.242Z,85.83
2017-06-19T00:25:10.550Z,85.93
2017-06-19T00:25:14.857Z,85.74
2017-06-19T00:25:19.172Z,85.74
2017-06-19T00:25:23.598Z,85.45
2017-06-19T00:25:28.022Z,85.54
2017-06-19T00:25:32.449Z,85.54
2017-06-19T00:25:36.878Z,85.16
2017-06-19T00:25:41.303Z,85.45
2017-06-19T00:25:45.495Z,85.45
2017-06-19T00:25:49.804Z,84.49
2017-06-19T00:25:54.227Z,84.78
2017-06-19T00:25:58.647Z,84.3
2017-06-19T00:26:03.058Z,84.49
2017-06-19T00:26:07.482Z,84.49
2017-06-19T00:26:11.789Z,84.49
2017-06-19T00:26:16.100Z,84.3
2017-06-19T00:26:20.526Z,84.49
2017-06-19T00:26:24.838Z,84.49
2017-06-19T00:26:29.153Z,84.58
2017-06-19T00:26:33.580Z,83.82
2017-06-19T00:26:38.006Z,84.01
2017-06-19T00:26:42.195Z,84.2
2017-06-19T00:26:46.504Z,83.92
2017-06-19T00:26:51.115Z,83.92
2017-06-19T00:26:55.423Z,84.11
2017-06-19T00:26:59.843Z,84.01
2017-06-19T00:27:04.269Z,84.11
2017-06-19T00:27:08.577Z,84.2
2017-06-19T00:27:12.887Z,84.2
2017-06-19T00:27:17.325Z,83.92
2017-06-19T00:27:21.746Z,84.01
2017-06-19T00:27:26.047Z,83.92
2017-06-19T00:27:30.351Z,83.92
2017-06-19T00:27:34.779Z,84.3
2017-06-19T00:27:39.203Z,84.11
2017-06-19T00:27:43.276Z,84.11
2017-06-19T00:27:47.582Z,83.92
2017-06-19T00:27:51.882Z,84.58
2017-06-19T00:27:56.185Z,84.58
2017-06-19T00:28:00.623Z,84.58
2017-06-19T00:28:05.298Z,84.39
2017-06-19T00:28:09.646Z,84.49
2017-06-19T00:28:13.832Z,84.49
2017-06-19T00:28:18.136Z,84.68
2017-06-19T00:28:22.557Z,84.39
2017-06-19T00:28:26.866Z,84.39
2017-06-19T00:28:31.343Z,84.68
2017-06-19T00:28:35.644Z,84.68
2017-06-19T00:28:40.064Z,85.06
2017-06-19T00:28:44.250Z,84.88
2017-06-19T00:28:48.433Z,84.97
2017-06-19T00:28:52.891Z,84.78
2017-06-19T00:28:57.210Z,84.78
2017-06-19T00:29:01.632Z,85.16
2017-06-19T00:29:06.053Z,85.25
2017-06-19T00:29:10.475Z,85.06
2017-06-19T00:29:14.785Z,85.35
2017-06-19T00:29:19.098Z,85.25
2017-06-19T00:29:23.515Z,85.45
2017-06-19T00:29:27.701Z,85.25
2017-06-19T00:29:32.131Z,85.64
2017-06-19T00:29:36.435Z,85.54
2017-06-19T00:29:40.628Z,85.74
2017-06-19T00:29:44.819Z,85.83
2017-06-19T00:29:49.240Z,85.74
2017-06-19T00:29:53.667Z,86.21
2017-06-19T00:29:57.967Z,86.02
2017-06-19T00:30:02.490Z,86.12
2017-06-19T00:30:06.571Z,86.12
2017-06-19T00:30:10.879Z,86.41
2017-06-19T00:30:15.303Z,86.69
2017-06-19T00:30:19.612Z,86.41
2017-06-19T00:30:24.040Z,86.5
2017-06-19T00:30:28.235Z,86.21
2017-06-19T00:30:32.552Z,86.6
2017-06-19T00:30:36.502Z,86.41
2017-06-19T00:30:40.925Z,86.5
2017-06-19T00:30:45.228Z,86.41
2017-06-19T00:30:49.536Z,86.41
2017-06-19T00:30:53.964Z,86.79
2017-06-19T00:30:58.415Z,86.41
2017-06-19T00:31:02.723Z,86.41
2017-06-19T00:31:07.149Z,86.12
2017-06-19T00:31:11.577Z,86.31
2017-06-19T00:31:15.999Z,86.21
2017-06-19T00:31:20.311Z,86.02
2017-06-19T00:31:24.618Z,85.93
2017-06-19T00:31:29.042Z,86.21
2017-06-19T00:31:33.462Z,86.21
2017-06-19T00:31:37.655Z,86.12
2017-06-19T00:31:42.081Z,86.21
2017-06-19T00:31:46.503Z,86.5
2017-06-19T00:31:51.037Z,86.6
2017-06-19T00:31:55.353Z,86.5
2017-06-19T00:31:59.780Z,86.79
2017-06-19T00:32:04.461Z,87.08
2017-06-19T00:32:08.689Z,87.08
2017-06-19T00:32:12.993Z,87.17
2017-06-19T00:32:17.180Z,86.98
2017-06-19T00:32:21.612Z,86.98
2017-06-19T00:32:25.799Z,86.79
2017-06-19T00:32:30.110Z,86.5
2017-06-19T00:32:34.535Z,87.17
2017-06-19T00:32:38.957Z,86.79
2017-06-19T00:32:43.260Z,86.88
2017-06-19T00:32:47.573Z,86.79
2017-06-19T00:32:52.000Z,86.6
2017-06-19T00:32:56.429Z,86.31
2017-06-19T00:33:00.854Z,85.93
2017-06-19T00:33:05.582Z,85.54
2017-06-19T00:33:10.003Z,85.74
2017-06-19T00:33:14.422Z,85.74
2017-06-19T00:33:18.844Z,85.64
2017-06-19T00:33:23.272Z,85.45
2017-06-19T00:33:27.467Z,85.25
2017-06-19T00:33:31.780Z,85.35
2017-06-19T00:33:36.201Z,85.06
2017-06-19T00:33:40.622Z,85.25
2017-06-19T00:33:44.934Z,85.35
2017-06-19T00:33:49.368Z,85.06
2017-06-19T00:33:53.794Z,84.88
2017-06-19T00:33:58.238Z,84.88
2017-06-19T00:34:02.546Z,84.97
2017-06-19T00:34:06.731Z,84.97
2017-06-19T00:34:10.919Z,84.58
2017-06-19T00:34:15.377Z,84.49
2017-06-19T00:34:19.682Z,84.39
2017-06-19T00:34:24.106Z,84.49
2017-06-19T00:34:28.293Z,84.39
2017-06-19T00:34:32.610Z,84.49
2017-06-19T00:34:37.042Z,84.49
2017-06-19T00:34:41.465Z,84.58
2017-06-19T00:34:45.795Z,84.68
2017-06-19T00:34:50.220Z,84.2
2017-06-19T00:34:54.640Z,83.82
2017-06-19T00:34:59.100Z,84.01
2017-06-19T00:35:03.401Z,84.01
2017-06-19T00:35:07.827Z,84.11
2017-06-19T00:35:12.144Z,84.39
2017-06-19T00:35:16.565Z,83.53
2017-06-19T00:35:20.750Z,83.34
2017-06-19T00:35:25.063Z,83.63
2017-06-19T00:35:29.251Z,83.72
2017-06-19T00:35:33.556Z,83.72
2017-06-19T00:35:37.980Z,83.92
2017-06-19T00:35:42.404Z,83.63
2017-06-19T00:35:46.717Z,83.72
2017-06-19T00:35:51.029Z,83.82
2017-06-19T00:35:55.460Z,84.3
2017-06-19T00:35:59.781Z,84.2
2017-06-19T00:36:04.203Z,84.2
2017-06-19T00:36:08.397Z,83.92
2017-06-19T00:36:12.707Z,83.92
2017-06-19T00:36:17.026Z,84.01
2017-06-19T00:36:21.446Z,83.82
2017-06-19T00:36:25.632Z,83.92
2017-06-19T00:36:29.942Z,84.88
2017-06-19T00:36:34.371Z,84.39
2017-06-19T00:36:38.797Z,84.01
2017-06-19T00:36:43.099Z,84.58
2017-06-19T00:36:47.519Z,84.58
2017-06-19T00:36:51.823Z,84.49
2017-06-19T00:36:56.252Z,83.92
2017-06-19T00:37:00.677Z,84.49
2017-06-19T00:37:04.999Z,83.92
2017-06-19T00:37:09.311Z,83.92
2017-06-19T00:37:13.743Z,83.92
2017-06-19T00:37:18.162Z,83.72
2017-06-19T00:37:22.592Z,83.82
2017-06-19T00:37:26.812Z,83.92
2017-06-19T00:37:31.115Z,83.82
2017-06-19T00:37:35.541Z,84.78
2017-06-19T00:37:39.961Z,84.58
2017-06-19T00:37:44.380Z,84.49
2017-06-19T00:37:48.810Z,84.58
2017-06-19T00:37:53.126Z,84.49
2017-06-19T00:37:57.555Z,84.58
2017-06-19T00:38:01.989Z,84.78
2017-06-19T00:38:06.173Z,84.49
2017-06-19T00:38:10.595Z,84.97
2017-06-19T00:38:14.663Z,84.88
2017-06-19T00:38:18.979Z,84.68
2017-06-19T00:38:23.161Z,85.54
2017-06-19T00:38:27.343Z,84.68
2017-06-19T00:38:31.772Z,85.54
2017-06-19T00:38:36.078Z,85.25
2017-06-19T00:38:40.508Z,85.45
2017-06-19T00:38:44.816Z,85.54
2017-06-19T00:38:49.241Z,85.35
2017-06-19T00:38:53.664Z,85.25
2017-06-19T00:38:58.099Z,85.06
2017-06-19T00:39:02.404Z,85.16
2017-06-19T00:39:06.831Z,84.97
2017-06-19T00:39:11.019Z,85.35
2017-06-19T00:39:15.446Z,85.25
2017-06-19T00:39:19.750Z,85.35
2017-06-19T00:39:24.053Z,85.45
2017-06-19T00:39:28.360Z,84.68
2017-06-19T00:39:32.825Z,84.68
2017-06-19T00:39:37.251Z,85.06
2017-06-19T00:39:41.551Z,84.39
2017-06-19T00:39:45.970Z,84.97
2017-06-19T00:39:50.401Z,84.39
2017-06-19T00:39:54.732Z,84.3
2017-06-19T00:39:59.172Z,84.39
2017-06-19T00:40:03.477Z,84.3
2017-06-19T00:40:07.669Z,84.39
2017-06-19T00:40:11.862Z,84.39
2017-06-19T00:40:16.174Z,84.49
2017-06-19T00:40:20.629Z,84.39
2017-06-19T00:40:24.933Z,84.58
2017-06-19T00:40:29.237Z,84.78
2017-06-19T00:40:33.663Z,83.82
2017-06-19T00:40:37.972Z,83.92
2017-06-19T00:40:42.289Z,83.72
2017-06-19T00:40:46.751Z,84.2
2017-06-19T00:40:51.172Z,83.63
2017-06-19T00:40:55.473Z,83.72
2017-06-19T00:40:59.896Z,83.72
2017-06-19T00:41:04.676Z,83.82
2017-06-19T00:41:09.147Z,83.72
2017-06-19T00:41:13.572Z,83.92
2017-06-19T00:41:17.883Z,83.82
2017-06-19T00:41:22.315Z,83.72
2017-06-19T00:41:26.623Z,83.72
2017-06-19T00:41:31.084Z,83.25
2017-06-19T00:41:35.392Z,83.44
2017-06-19T00:41:39.817Z,83.34
2017-06-19T00:41:44.242Z,83.34
2017-06-19T00:41:48.666Z,83.44
2017-06-19T00:41:53.096Z,83.34
2017-06-19T00:41:57.529Z,83.34
2017-06-19T00:42:02.099Z,83.63
2017-06-19T00:42:06.404Z,83.34
2017-06-19T00:42:10.831Z,83.34
2017-06-19T00:42:15.015Z,83.34
2017-06-19T00:42:19.453Z,83.15
2017-06-19T00:42:23.874Z,83.63
2017-06-19T00:42:28.305Z,83.34
2017-06-19T00:42:32.727Z,83.34
2017-06-19T00:42:37.030Z,83.25
2017-06-19T00:42:41.451Z,83.34
2017-06-19T00:42:45.897Z,83.53
2017-06-19T00:42:50.215Z,83.25
2017-06-19T00:42:54.517Z,83.63
2017-06-19T00:42:58.818Z,83.34
2017-06-19T00:43:03.387Z,83.44
2017-06-19T00:43:07.810Z,83.44
2017-06-19T00:43:12.248Z,83.34
2017-06-19T00:43:16.713Z,83.34
2017-06-19T00:43:21.132Z,83.72
2017-06-19T00:43:25.555Z,83.63
2017-06-19T00:43:29.978Z,83.44
2017-06-19T00:43:34.429Z,84.39
2017-06-19T00:43:38.861Z,84.2
2017-06-19T00:43:43.163Z,84.11
2017-06-19T00:43:47.583Z,84.01
2017-06-19T00:43:51.886Z,83.92
2017-06-19T00:43:56.192Z,84.58
2017-06-19T00:44:00.611Z,84.49
2017-06-19T00:44:05.032Z,84.68
2017-06-19T00:44:09.224Z,84.49
2017-06-19T00:44:13.643Z,84.68
2017-06-19T00:44:18.069Z,84.58
2017-06-19T00:44:22.379Z,84.97
2017-06-19T00:44:26.798Z,84.97
2017-06-19T00:44:31.105Z,84.68
2017-06-19T00:44:35.524Z,84.58
2017-06-19T00:44:39.948Z,84.78
2017-06-19T00:44:44.372Z,84.58
2017-06-19T00:44:48.563Z,84.78
2017-06-19T00:44:52.984Z,84.97
2017-06-19T00:44:57.286Z,84.68
2017-06-19T00:45:01.726Z,84.68
2017-06-19T00:45:06.153Z,84.78
2017-06-19T00:45:10.463Z,85.06
2017-06-19T00:45:14.775Z,84.49
2017-06-19T00:45:19.200Z,84.39
2017-06-19T00:45:23.621Z,84.39
2017-06-19T00:45:27.931Z,84.49
2017-06-19T00:45:32.359Z,84.58
2017-06-19T00:45:36.793Z,84.58
2017-06-19T00:45:41.100Z,84.78
2017-06-19T00:45:45.404Z,84.3
2017-06-19T00:45:49.829Z,84.3
2017-06-19T00:45:54.138Z,84.58
2017-06-19T00:45:58.564Z,84.49
2017-06-19T00:46:02.994Z,84.49
2017-06-19T00:46:07.063Z,84.39
2017-06-19T00:46:11.251Z,84.49
2017-06-19T00:46:15.436Z,84.39
2017-06-19T00:46:19.740Z,84.39
2017-06-19T00:46:23.962Z,84.49
2017-06-19T00:46:28.385Z,84.97
2017-06-19T00:46:32.806Z,84.97
2017-06-19T00:46:37.231Z,84.78
2017-06-19T00:46:41.652Z,84.88
2017-06-19T00:46:46.078Z,84.68
2017-06-19T00:46:50.535Z,85.25
2017-06-19T00:46:55.255Z,85.45
2017-06-19T00:46:59.572Z,85.45
2017-06-19T00:47:04.179Z,85.35
2017-06-19T00:47:08.367Z,85.06
2017-06-19T00:47:12.793Z,85.06
2017-06-19T00:47:17.097Z,85.25
2017-06-19T00:47:21.516Z,85.35
2017-06-19T00:47:25.704Z,85.25
2017-06-19T00:47:30.007Z,85.45
2017-06-19T00:47:34.435Z,85.35
2017-06-19T00:47:38.869Z,85.25
2017-06-19T00:47:43.174Z,85.45
2017-06-19T00:47:47.596Z,85.35
2017-06-19T00:47:51.788Z,85.35
2017-06-19T00:47:56.212Z,85.35
2017-06-19T00:48:00.521Z,85.25
2017-06-19T00:48:04.832Z,85.64
2017-06-19T00:48:09.256Z,85.45
2017-06-19T00:48:13.673Z,85.25
2017-06-19T00:48:17.980Z,85.45
2017-06-19T00:48:22.401Z,86.02
2017-06-19T00:48:26.708Z,85.93
2017-06-19T00:48:31.136Z,86.02
2017-06-19T00:48:35.556Z,85.54
2017-06-19T00:48:39.973Z,85.74
2017-06-19T00:48:44.395Z,85.74
2017-06-19T00:48:48.823Z,85.35
2017-06-19T00:48:53.128Z,85.45
2017-06-19T00:48:57.551Z,85.45
2017-06-19T00:49:01.858Z,85.54
2017-06-19T00:49:05.924Z,85.16
2017-06-19T00:49:10.342Z,85.54
2017-06-19T00:49:14.678Z,85.06
2017-06-19T00:49:19.105Z,85.06
2017-06-19T00:49:23.520Z,85.25
2017-06-19T00:49:27.938Z,85.16
2017-06-19T00:49:32.242Z,84.68
2017-06-19T00:49:36.671Z,85.54
2017-06-19T00:49:41.097Z,84.78
2017-06-19T00:49:45.401Z,84.88
2017-06-19T00:49:49.827Z,84.68
2017-06-19T00:49:54.249Z,84.78
2017-06-19T00:49:58.553Z,84.88
2017-06-19T00:50:02.976Z,84.58
2017-06-19T00:50:07.313Z,84.68
2017-06-19T00:50:11.616Z,84.97
2017-06-19T00:50:16.035Z,84.68
2017-06-19T00:50:20.465Z,84.49
2017-06-19T00:50:24.778Z,84.58
2017-06-19T00:50:29.206Z,84.39
2017-06-19T00:50:33.627Z,84.39
2017-06-19T00:50:38.051Z,84.39
2017-06-19T00:50:42.355Z,84.39
2017-06-19T00:50:46.781Z,84.39
2017-06-19T00:50:51.208Z,84.49
2017-06-19T00:50:55.638Z,84.39
2017-06-19T00:50:59.708Z,84.49
2017-06-19T00:51:04.016Z,84.58
2017-06-19T00:51:08.316Z,84.11
2017-06-19T00:51:12.736Z,84.78
2017-06-19T00:51:17.077Z,84.68
2017-06-19T00:51:21.499Z,84.11
2017-06-19T00:51:25.919Z,83.92
2017-06-19T00:51:30.338Z,83.82
2017-06-19T00:51:34.762Z,83.87
2017-06-19T00:51:39.219Z,84.11
2017-06-19T00:51:43.641Z,84.01
2017-06-19T00:51:48.067Z,84.11
2017-06-19T00:51:52.370Z,84.2
2017-06-19T00:51:56.557Z,84.16
2017-06-19T00:52:00.882Z,84.49
2017-06-19T00:52:05.199Z,84.39
2017-06-19T00:52:09.623Z,83.92
2017-06-19T00:52:13.926Z,84.26
2017-06-19T00:52:18.232Z,84.3
2017-06-19T00:52:22.535Z,83.53
2017-06-19T00:52:26.848Z,83.53
2017-06-19T00:52:31.270Z,83.59
2017-06-19T00:52:35.694Z,83.53
2017-06-19T00:52:40.116Z,83.53
2017-06-19T00:52:44.536Z,83.72
2017-06-19T00:52:48.849Z,83.92
2017-06-19T00:52:53.044Z,83.72
2017-06-19T00:52:57.466Z,83.15
2017-06-19T00:53:01.887Z,83.44
2017-06-19T00:53:06.308Z,83.44
2017-06-19T00:53:10.733Z,83.3
2017-06-19T00:53:15.157Z,83.34
2017-06-19T00:53:19.583Z,83.53
2017-06-19T00:53:24.004Z,83.25
2017-06-19T00:53:28.303Z,83.53
2017-06-19T00:53:32.725Z,83.44
2017-06-19T00:53:37.146Z,83.72
2017-06-19T00:53:41.573Z,83.72
2017-06-19T00:53:46.027Z,83.72
2017-06-19T00:53:50.215Z,83.92
2017-06-19T00:53:54.634Z,83.34
2017-06-19T00:53:59.057Z,83.53
2017-06-19T00:54:03.483Z,83.72
2017-06-19T00:54:07.907Z,83.53
2017-06-19T00:54:12.331Z,83.92
2017-06-19T00:54:16.750Z,83.53
2017-06-19T00:54:21.170Z,83.53
2017-06-19T00:54:25.238Z,83.44
2017-06-19T00:54:29.662Z,84.3
2017-06-19T00:54:34.117Z,84.39
2017-06-19T00:54:38.543Z,84.35
2017-06-19T00:54:42.964Z,83.53
2017-06-19T00:54:47.384Z,84.3
2017-06-19T00:54:51.577Z,84.39
2017-06-19T00:54:56.012Z,84.2
2017-06-19T00:55:00.320Z,84.39
2017-06-19T00:55:04.742Z,84.01
2017-06-19T00:55:09.165Z,84.2
2017-06-19T00:55:13.587Z,84.3
2017-06-19T00:55:18.014Z,83.49
2017-06-19T00:55:22.448Z,83.49
2017-06-19T00:55:26.751Z,83.49
2017-06-19T00:55:31.179Z,84.39
2017-06-19T00:55:35.603Z,84.01
2017-06-19T00:55:40.032Z,83.92
2017-06-19T00:55:44.340Z,84.35
2017-06-19T00:55:48.661Z,84.11
2017-06-19T00:55:53.079Z,83.92
2017-06-19T00:55:57.504Z,83.97
2017-06-19T00:56:01.929Z,84.58
2017-06-19T00:56:06.361Z,84.64
2017-06-19T00:56:10.792Z,84.64
2017-06-19T00:56:15.214Z,84.58